createdAt,value
2023-12-09T00:00:42.321Z,1.87
2023-12-09T00:03:09.981Z,1.85
2023-12-09T00:05:37.236Z,1.97
2023-12-09T00:08:03.992Z,1.95
2023-12-09T00:10:30.632Z,2.06
2023-12-09T00:12:57.191Z,2.02
2023-12-09T00:15:23.771Z,2.03
2023-12-09T00:17:50.420Z,1.89
2023-12-09T00:20:17.039Z,1.74
2023-12-09T00:22:43.625Z,1.64
2023-12-09T00:25:10.396Z,1.70
2023-12-09T00:27:36.967Z,1.73
2023-12-09T00:30:03.625Z,1.81
2023-12-09T00:32:30.371Z,1.57
2023-12-09T00:34:57.142Z,1.77
2023-12-09T00:37:23.725Z,1.75
2023-12-09T00:39:50.286Z,1.52
2023-12-09T00:42:16.869Z,1.40
2023-12-09T00:44:43.550Z,1.31
2023-12-09T00:47:10.705Z,1.23
2023-12-09T00:49:37.348Z,1.15
2023-12-09T00:52:04.283Z,1.06
2023-12-09T00:54:30.928Z,0.96
2023-12-09T00:56:57.575Z,0.85
2023-12-09T00:59:24.174Z,0.85
2023-12-09T01:01:50.884Z,0.90
2023-12-09T01:04:17.545Z,0.88
2023-12-09T01:06:44.140Z,0.79
2023-12-09T01:09:10.745Z,0.83
2023-12-09T01:11:37.368Z,0.81
2023-12-09T01:14:03.996Z,0.63
2023-12-09T01:16:30.677Z,0.61
2023-12-09T01:18:57.412Z,0.54
2023-12-09T01:21:24.063Z,0.47
2023-12-09T01:23:50.729Z,0.46
2023-12-09T01:26:17.273Z,0.43
2023-12-09T01:28:44.015Z,0.37
2023-12-09T01:31:10.670Z,0.32
2023-12-09T01:33:38.538Z,0.11
2023-12-09T01:36:05.454Z,0.11
2023-12-09T01:38:32.044Z,0.06
2023-12-09T01:40:58.609Z,0.09
2023-12-09T01:43:25.157Z,0.21
2023-12-09T01:45:52.993Z,0.24
2023-12-09T01:48:20.439Z,0.23
2023-12-09T01:50:47.384Z,0.17
2023-12-09T01:53:14.036Z,0.25
2023-12-09T01:55:41.918Z,0.38
2023-12-09T01:58:09.595Z,0.17
2023-12-09T02:00:38.539Z,0.10
2023-12-09T02:03:05.783Z,0.11
2023-12-09T02:05:32.536Z,0.05
2023-12-09T02:07:59.131Z,0.10
2023-12-09T02:10:25.823Z,0.20
2023-12-09T02:13:15.030Z,0.22
2023-12-09T02:15:43.837Z,0.17
2023-12-09T02:18:10.844Z,0.24
2023-12-09T02:20:37.543Z,0.21
2023-12-09T02:23:08.017Z,0.29
2023-12-09T02:25:35.329Z,0.27
2023-12-09T02:28:03.966Z,0.25
2023-12-09T02:30:49.164Z,0.29
2023-12-09T02:33:17.260Z,0.25
2023-12-09T02:35:44.939Z,0.17
2023-12-09T02:38:12.447Z,0.20
2023-12-09T02:40:40.048Z,0.21
2023-12-09T02:43:06.542Z,0.18
2023-12-09T02:45:33.094Z,0.18
2023-12-09T02:48:00.036Z,0.19
2023-12-09T02:50:26.817Z,0.12
2023-12-09T02:52:53.384Z,0.17
2023-12-09T02:55:19.984Z,0.10
2023-12-09T02:57:46.501Z,0.16
2023-12-09T03:00:13.336Z,0.14
2023-12-09T03:02:41.094Z,0.07
2023-12-09T03:05:07.851Z,0.04
2023-12-09T03:07:34.442Z,0.05
2023-12-09T03:10:01.031Z,-0.06
2023-12-09T03:12:27.860Z,0.00
2023-12-09T03:14:54.622Z,0.08
2023-12-09T03:17:21.180Z,0.02
2023-12-09T03:19:47.820Z,-0.02
2023-12-09T03:22:14.479Z,-0.08
2023-12-09T03:24:42.956Z,-0.10
2023-12-09T03:27:09.541Z,-0.06
2023-12-09T03:29:36.899Z,-0.07
2023-12-09T03:32:03.623Z,-0.05
2023-12-09T03:34:30.324Z,-0.04
2023-12-09T03:36:56.909Z,-0.10
2023-12-09T03:39:23.542Z,-0.09
2023-12-09T03:41:50.114Z,-0.05
2023-12-09T03:44:16.665Z,-0.10
2023-12-09T03:46:43.160Z,-0.09
2023-12-09T03:49:09.901Z,-0.15
2023-12-09T03:51:36.544Z,-0.17
2023-12-09T03:54:03.204Z,-0.23
2023-12-09T03:56:29.821Z,-0.22
2023-12-09T03:58:56.487Z,-0.24
2023-12-09T04:01:25.969Z,-0.23
2023-12-09T04:03:52.849Z,-0.19
2023-12-09T04:06:19.670Z,-0.24
2023-12-09T04:08:46.299Z,-0.22
2023-12-09T04:11:12.868Z,-0.21
2023-12-09T04:13:41.446Z,-0.23
2023-12-09T04:16:08.336Z,-0.33
2023-12-09T04:18:35.256Z,-0.33
2023-12-09T04:21:01.911Z,-0.28
2023-12-09T04:23:28.552Z,-0.34
2023-12-09T04:25:55.085Z,-0.26
2023-12-09T04:28:21.688Z,-0.26
2023-12-09T04:30:48.243Z,-0.29
2023-12-09T04:33:14.894Z,-0.26
2023-12-09T04:35:41.557Z,-0.23
2023-12-09T04:38:08.145Z,-0.30
2023-12-09T04:40:34.762Z,-0.35
2023-12-09T04:43:01.336Z,-0.32
2023-12-09T04:45:27.888Z,-0.22
2023-12-09T04:47:54.645Z,-0.35
2023-12-09T04:50:22.076Z,-0.36
2023-12-09T04:52:48.746Z,-0.47
2023-12-09T04:55:15.379Z,-0.38
2023-12-09T04:57:42.003Z,-0.39
2023-12-09T05:00:12.285Z,-0.31
2023-12-09T05:02:39.507Z,-0.27
2023-12-09T05:05:06.291Z,-0.20
2023-12-09T05:07:33.160Z,-0.15
2023-12-09T05:09:59.680Z,-0.15
2023-12-09T05:12:28.438Z,-0.08
2023-12-09T05:14:55.374Z,0.03
2023-12-09T05:17:22.037Z,0.04
2023-12-09T05:19:48.771Z,0.03
2023-12-09T05:22:16.129Z,0.09
2023-12-09T05:24:45.746Z,-0.18
2023-12-09T05:27:12.319Z,-0.16
2023-12-09T05:29:40.880Z,-0.03
2023-12-09T05:32:09.376Z,-0.07
2023-12-09T05:34:35.997Z,-0.23
2023-12-09T05:37:02.607Z,0.04
2023-12-09T05:39:29.233Z,0.04
2023-12-09T05:41:55.862Z,0.10
2023-12-09T05:44:22.642Z,0.07
2023-12-09T05:46:49.231Z,-0.07
2023-12-09T05:49:16.224Z,-0.23
2023-12-09T05:51:43.725Z,-0.11
2023-12-09T05:54:10.329Z,0.13
2023-12-09T05:56:37.137Z,0.24
2023-12-09T05:59:03.678Z,0.23
2023-12-09T06:01:30.348Z,0.23
2023-12-09T06:03:57.153Z,0.22
2023-12-09T06:06:23.757Z,0.25
2023-12-09T06:08:50.432Z,0.19
2023-12-09T06:11:17.206Z,0.26
2023-12-09T06:13:43.745Z,0.52
2023-12-09T06:16:10.359Z,0.55
2023-12-09T06:18:36.919Z,0.56
2023-12-09T06:21:03.614Z,0.66
2023-12-09T06:23:30.335Z,0.61
2023-12-09T06:25:56.942Z,0.75
2023-12-09T06:28:23.506Z,0.75
2023-12-09T06:30:50.051Z,0.70
2023-12-09T06:33:16.972Z,0.69
2023-12-09T06:35:43.825Z,0.66
2023-12-09T06:38:10.347Z,0.68
2023-12-09T06:40:36.891Z,0.42
2023-12-09T06:43:03.720Z,0.35
2023-12-09T06:45:30.291Z,0.29
2023-12-09T06:47:57.231Z,0.32
2023-12-09T06:50:23.877Z,0.33
2023-12-09T06:52:50.720Z,0.26
2023-12-09T06:55:17.336Z,0.49
2023-12-09T06:57:44.038Z,0.60
2023-12-09T07:00:10.949Z,0.62
2023-12-09T07:02:48.645Z,0.74
2023-12-09T07:05:23.294Z,0.82
2023-12-09T07:07:50.379Z,0.71
2023-12-09T07:10:17.859Z,0.92
2023-12-09T07:12:45.040Z,0.88
2023-12-09T07:15:13.548Z,0.99
2023-12-09T07:17:40.333Z,1.24
2023-12-09T07:20:07.518Z,1.38
2023-12-09T07:22:34.233Z,1.59
2023-12-09T07:25:00.834Z,1.75
2023-12-09T07:27:29.409Z,1.71
2023-12-09T07:29:56.056Z,1.62
2023-12-09T07:32:22.869Z,1.76
2023-12-09T07:34:49.668Z,1.85
2023-12-09T07:37:16.375Z,1.94
2023-12-09T07:39:43.604Z,2.03
2023-12-09T07:42:10.302Z,2.03
2023-12-09T07:44:37.044Z,2.19
2023-12-09T07:47:03.686Z,2.09
2023-12-09T07:49:30.428Z,2.13
2023-12-09T07:51:57.144Z,2.25
2023-12-09T07:54:23.730Z,2.34
2023-12-09T07:56:50.397Z,1.96
2023-12-09T07:59:16.942Z,2.43
2023-12-09T08:01:43.593Z,2.38
2023-12-09T08:04:10.755Z,2.55
2023-12-09T08:06:37.590Z,2.41
2023-12-09T08:09:04.440Z,2.50
2023-12-09T08:11:31.257Z,2.64
2023-12-09T08:13:57.908Z,2.73
2023-12-09T08:16:24.447Z,2.61
2023-12-09T08:18:51.345Z,2.51
2023-12-09T08:21:18.300Z,2.68
2023-12-09T08:23:45.102Z,2.80
2023-12-09T08:26:16.288Z,2.93
2023-12-09T08:28:42.833Z,3.06
2023-12-09T08:31:09.485Z,2.96
2023-12-09T08:33:36.079Z,3.04
2023-12-09T08:36:02.763Z,3.03
2023-12-09T08:38:29.445Z,3.05
2023-12-09T08:40:56.010Z,3.03
2023-12-09T08:43:22.572Z,3.04
2023-12-09T08:45:49.213Z,2.91
2023-12-09T08:48:15.952Z,3.04
2023-12-09T08:50:42.637Z,3.09
2023-12-09T08:53:09.883Z,2.97
2023-12-09T08:55:36.513Z,3.15
2023-12-09T08:58:04.304Z,3.09
2023-12-09T09:00:31.525Z,3.05
2023-12-09T09:02:58.370Z,3.12
2023-12-09T09:05:25.458Z,3.30
2023-12-09T09:07:52.362Z,3.42
2023-12-09T09:10:20.161Z,3.47
2023-12-09T09:12:48.219Z,3.56
2023-12-09T09:15:16.862Z,3.60
2023-12-09T09:17:43.953Z,3.58
2023-12-09T09:20:11.877Z,3.58
2023-12-09T09:22:38.794Z,3.55
2023-12-09T09:25:05.748Z,3.69
2023-12-09T09:27:32.524Z,3.73
2023-12-09T09:29:59.216Z,3.77
2023-12-09T09:32:26.252Z,3.68
2023-12-09T09:34:53.864Z,3.50
2023-12-09T09:37:20.559Z,3.77
2023-12-09T09:39:47.807Z,3.75
2023-12-09T09:42:24.596Z,3.77
2023-12-09T09:44:56.820Z,3.73
2023-12-09T09:47:24.305Z,3.92
2023-12-09T09:49:52.520Z,3.74
2023-12-09T09:52:20.706Z,3.59
2023-12-09T09:54:48.077Z,3.83
2023-12-09T09:57:15.223Z,3.71
2023-12-09T09:59:42.215Z,3.88
2023-12-09T10:02:09.249Z,3.99
2023-12-09T10:04:35.963Z,3.98
2023-12-09T10:07:03.338Z,3.98
2023-12-09T10:09:30.023Z,4.05
2023-12-09T10:11:56.805Z,4.11
2023-12-09T10:14:24.502Z,4.28
2023-12-09T10:16:51.971Z,4.28
2023-12-09T10:19:20.714Z,4.07
2023-12-09T10:21:47.624Z,3.93
2023-12-09T10:24:14.218Z,4.02
2023-12-09T10:26:40.904Z,3.98
2023-12-09T10:29:08.257Z,3.91
2023-12-09T10:31:36.798Z,3.82
2023-12-09T10:34:04.333Z,3.76
2023-12-09T10:36:31.792Z,3.75
2023-12-09T10:38:58.861Z,3.82
2023-12-09T10:41:26.590Z,3.94
2023-12-09T10:43:56.115Z,3.94
2023-12-09T10:46:22.931Z,3.99
2023-12-09T10:48:49.791Z,3.79
2023-12-09T10:51:17.217Z,3.75
2023-12-09T10:53:43.883Z,3.66
2023-12-09T10:56:10.764Z,3.55
2023-12-09T10:58:39.701Z,3.42
2023-12-09T11:01:08.090Z,3.48
2023-12-09T11:03:35.447Z,3.36
2023-12-09T11:06:03.024Z,3.44
2023-12-09T11:08:30.543Z,3.63
2023-12-09T11:10:58.026Z,3.77
2023-12-09T11:13:33.371Z,3.95
2023-12-09T11:16:26.206Z,3.97
2023-12-09T11:18:57.050Z,4.06
2023-12-09T11:21:24.978Z,4.13
2023-12-09T11:23:52.112Z,4.07
2023-12-09T11:26:22.195Z,3.95
2023-12-09T11:28:59.259Z,3.93
2023-12-09T11:31:42.456Z,3.94
2023-12-09T11:34:10.133Z,3.94
2023-12-09T11:36:38.188Z,3.86
2023-12-09T11:39:08.064Z,3.87
2023-12-09T11:41:35.162Z,3.72
2023-12-09T11:44:03.547Z,3.81
2023-12-09T11:46:33.741Z,3.71
2023-12-09T11:49:01.081Z,3.84
2023-12-09T11:51:29.132Z,3.90
2023-12-09T11:53:59.955Z,3.82
2023-12-09T11:56:27.712Z,3.86
2023-12-09T11:58:54.704Z,3.86
2023-12-09T12:01:21.512Z,3.99
2023-12-09T12:03:48.857Z,3.90
2023-12-09T12:06:16.672Z,3.64
2023-12-09T12:08:43.691Z,3.44
2023-12-09T12:11:11.011Z,3.60
2023-12-09T12:13:37.749Z,3.89
2023-12-09T12:16:05.048Z,3.92
2023-12-09T12:18:31.777Z,3.88
2023-12-09T12:20:58.448Z,4.01
2023-12-09T12:23:32.412Z,4.05
2023-12-09T12:25:59.972Z,3.95
2023-12-09T12:28:26.958Z,3.93
2023-12-09T12:30:54.608Z,3.84
2023-12-09T12:33:22.391Z,3.92
2023-12-09T12:35:55.299Z,3.92
2023-12-09T12:38:23.396Z,3.82
2023-12-09T12:40:50.896Z,3.94
2023-12-09T12:43:17.835Z,4.13
2023-12-09T12:45:48.175Z,4.24
2023-12-09T12:48:15.730Z,4.28
2023-12-09T12:50:42.856Z,4.32
2023-12-09T12:53:10.466Z,4.23
2023-12-09T12:55:37.287Z,4.15
2023-12-09T12:58:04.312Z,4.09
2023-12-09T13:00:33.843Z,3.87
2023-12-09T13:03:01.289Z,3.85
2023-12-09T13:05:27.895Z,3.51
2023-12-09T13:07:54.517Z,3.35
2023-12-09T13:10:21.373Z,3.38
2023-12-09T13:12:47.998Z,3.39
2023-12-09T13:15:14.665Z,3.13
2023-12-09T13:17:41.550Z,3.09
2023-12-09T13:20:10.814Z,3.21
2023-12-09T13:22:37.587Z,3.29
2023-12-09T13:25:06.631Z,3.24
2023-12-09T13:27:33.572Z,3.41
2023-12-09T13:30:01.360Z,3.35
2023-12-09T13:32:28.291Z,3.31
2023-12-09T13:34:55.164Z,3.31
2023-12-09T13:37:21.897Z,3.40
2023-12-09T13:39:48.739Z,3.34
2023-12-09T13:42:15.470Z,3.18
2023-12-09T13:44:42.284Z,3.13
2023-12-09T13:47:08.923Z,3.07
2023-12-09T13:49:35.776Z,3.17
2023-12-09T13:52:02.828Z,3.21
2023-12-09T13:54:29.561Z,3.17
2023-12-09T13:56:56.146Z,3.23
2023-12-09T13:59:22.715Z,3.19
2023-12-09T14:01:50.659Z,3.20
2023-12-09T14:04:17.767Z,3.17
2023-12-09T14:06:44.480Z,3.17
2023-12-09T14:09:11.172Z,3.24
2023-12-09T14:11:39.718Z,3.28
2023-12-09T14:14:07.611Z,3.22
2023-12-09T14:16:36.421Z,3.14
2023-12-09T14:19:03.668Z,3.10
2023-12-09T14:21:30.365Z,3.25
2023-12-09T14:23:56.960Z,3.23
2023-12-09T14:26:25.197Z,3.18
2023-12-09T14:28:52.365Z,3.07
2023-12-09T14:31:18.885Z,3.03
2023-12-09T14:33:45.625Z,3.10
2023-12-09T14:36:12.478Z,3.12
2023-12-09T14:38:39.333Z,2.79
2023-12-09T14:41:06.064Z,2.76
2023-12-09T14:43:32.817Z,2.64
2023-12-09T14:45:59.496Z,2.73
2023-12-09T14:48:27.329Z,2.68
2023-12-09T14:50:55.474Z,2.73
2023-12-09T14:53:22.029Z,2.74
2023-12-09T14:55:48.668Z,2.63
2023-12-09T14:58:15.333Z,2.68
2023-12-09T15:00:42.376Z,2.65
2023-12-09T15:03:09.113Z,2.47
2023-12-09T15:05:35.890Z,2.64
2023-12-09T15:08:04.125Z,2.74
2023-12-09T15:10:31.144Z,2.76
2023-12-09T15:12:57.782Z,2.70
2023-12-09T15:15:24.464Z,2.59
2023-12-09T15:17:51.222Z,2.46
2023-12-09T15:20:17.974Z,2.37
2023-12-09T15:22:47.181Z,2.37
2023-12-09T15:25:14.444Z,2.13
2023-12-09T15:27:41.275Z,2.35
2023-12-09T15:30:09.394Z,2.49
2023-12-09T15:32:36.238Z,2.45
2023-12-09T15:35:03.227Z,2.42
2023-12-09T15:37:29.898Z,2.49
2023-12-09T15:39:56.609Z,2.65
2023-12-09T15:42:23.286Z,2.65
2023-12-09T15:44:50.347Z,2.65
2023-12-09T15:47:17.125Z,2.67
2023-12-09T15:49:43.719Z,2.61
2023-12-09T15:52:10.455Z,2.74
2023-12-09T15:54:37.125Z,2.56
2023-12-09T15:57:04.348Z,2.69
2023-12-09T15:59:30.939Z,2.56
2023-12-09T16:01:57.602Z,2.40
2023-12-09T16:04:24.261Z,2.53
2023-12-09T16:06:50.841Z,2.58
2023-12-09T16:09:17.599Z,2.48
2023-12-09T16:11:44.685Z,2.41
2023-12-09T16:14:11.260Z,2.48
2023-12-09T16:16:38.191Z,2.55
2023-12-09T16:19:04.995Z,2.55
2023-12-09T16:21:31.842Z,2.60
2023-12-09T16:23:58.450Z,2.56
2023-12-09T16:26:27.291Z,2.63
2023-12-09T16:28:54.028Z,2.64
2023-12-09T16:31:20.837Z,2.52
2023-12-09T16:33:47.730Z,2.47
2023-12-09T16:36:16.241Z,2.51
2023-12-09T16:38:42.865Z,2.67
2023-12-09T16:41:09.544Z,2.66
2023-12-09T16:43:36.283Z,2.66
2023-12-09T16:46:03.031Z,2.64
2023-12-09T16:48:31.329Z,2.58
2023-12-09T16:50:58.289Z,2.69
2023-12-09T16:53:25.140Z,2.69
2023-12-09T16:55:51.946Z,2.67
2023-12-09T16:58:23.081Z,2.70
2023-12-09T17:00:50.081Z,2.59
2023-12-09T17:03:16.888Z,2.67
2023-12-09T17:05:43.688Z,2.32
2023-12-09T17:08:10.779Z,2.38
2023-12-09T17:10:37.737Z,2.40
2023-12-09T17:13:04.541Z,2.35
2023-12-09T17:15:31.363Z,2.47
2023-12-09T17:17:59.560Z,2.54
2023-12-09T17:20:28.907Z,2.51
2023-12-09T17:22:55.701Z,2.52
2023-12-09T17:25:22.606Z,2.44
2023-12-09T17:27:52.023Z,2.46
2023-12-09T17:30:19.096Z,2.43
2023-12-09T17:32:45.934Z,2.51
2023-12-09T17:35:13.161Z,2.68
2023-12-09T17:37:40.242Z,2.67
2023-12-09T17:40:07.820Z,2.68
2023-12-09T17:42:34.765Z,2.43
2023-12-09T17:45:01.730Z,2.34
2023-12-09T17:47:28.731Z,2.27
2023-12-09T17:49:56.469Z,2.23
2023-12-09T17:52:25.889Z,2.18
2023-12-09T17:54:53.768Z,2.07
2023-12-09T17:57:20.776Z,2.09
2023-12-09T17:59:47.564Z,1.93
2023-12-09T18:02:14.465Z,1.88
2023-12-09T18:04:46.391Z,1.74
2023-12-09T18:07:13.404Z,1.76
2023-12-09T18:09:41.606Z,1.76
2023-12-09T18:12:08.738Z,1.75
2023-12-09T18:14:36.122Z,1.58
2023-12-09T18:17:03.119Z,1.55
2023-12-09T18:19:30.237Z,1.38
2023-12-09T18:21:57.209Z,1.36
2023-12-09T18:24:24.101Z,1.50
2023-12-09T18:26:50.846Z,1.59
2023-12-09T18:29:17.760Z,1.61
2023-12-09T18:31:45.265Z,1.62
2023-12-09T18:34:18.577Z,1.66
2023-12-09T18:36:45.563Z,1.59
2023-12-09T18:39:12.375Z,1.61
2023-12-09T18:41:41.695Z,1.51
2023-12-09T18:44:08.543Z,1.50
2023-12-09T18:46:35.979Z,1.52
2023-12-09T18:49:02.947Z,1.40
2023-12-09T18:51:29.894Z,1.42
2023-12-09T18:53:58.574Z,1.41
2023-12-09T18:56:25.742Z,1.51
2023-12-09T18:58:52.441Z,1.52
2023-12-09T19:01:19.365Z,1.51
2023-12-09T19:03:46.452Z,1.53
2023-12-09T19:06:13.410Z,1.63
2023-12-09T19:08:41.716Z,1.52
2023-12-09T19:11:09.852Z,1.35
2023-12-09T19:13:36.636Z,1.47
2023-12-09T19:16:05.273Z,1.05
2023-12-09T19:18:32.653Z,1.23
2023-12-09T19:21:01.474Z,1.30
2023-12-09T19:23:28.312Z,1.27
2023-12-09T19:25:55.030Z,1.21
2023-12-09T19:28:22.135Z,1.30
2023-12-09T19:30:49.551Z,1.36
2023-12-09T19:33:16.543Z,1.38
2023-12-09T19:35:43.562Z,1.39
2023-12-09T19:38:10.450Z,1.51
2023-12-09T19:40:40.120Z,1.61
2023-12-09T19:43:10.047Z,1.64
2023-12-09T19:45:36.975Z,1.58
2023-12-09T19:48:04.023Z,1.67
2023-12-09T19:50:31.692Z,1.81
2023-12-09T19:52:58.450Z,1.77
2023-12-09T19:55:25.291Z,1.73
2023-12-09T19:57:52.084Z,1.83
2023-12-09T20:00:19.002Z,1.79
2023-12-09T20:02:47.952Z,1.76
2023-12-09T20:05:15.671Z,1.85
2023-12-09T20:07:42.396Z,1.80
2023-12-09T20:10:10.689Z,1.88
2023-12-09T20:12:37.587Z,1.93
2023-12-09T20:15:07.798Z,1.98
2023-12-09T20:17:34.749Z,1.90
2023-12-09T20:20:01.624Z,1.93
2023-12-09T20:22:29.169Z,1.93
2023-12-09T20:24:57.437Z,1.82
2023-12-09T20:27:24.540Z,1.78
2023-12-09T20:29:56.976Z,1.73
2023-12-09T20:32:23.672Z,1.78
2023-12-09T20:34:50.677Z,1.81
2023-12-09T20:37:17.541Z,1.74
2023-12-09T20:39:44.528Z,1.58
2023-12-09T20:42:11.394Z,1.58
2023-12-09T20:44:38.253Z,1.68
2023-12-09T20:47:05.115Z,1.70
2023-12-09T20:49:32.029Z,1.71
2023-12-09T20:51:58.909Z,1.76
2023-12-09T20:54:25.596Z,1.74
2023-12-09T20:56:52.413Z,1.62
2023-12-09T20:59:19.279Z,1.67
2023-12-09T21:01:46.876Z,1.93
2023-12-09T21:04:14.353Z,2.03
2023-12-09T21:06:41.470Z,1.99
2023-12-09T21:09:08.533Z,2.05
2023-12-09T21:11:38.997Z,2.15
2023-12-09T21:14:09.163Z,2.08
2023-12-09T21:16:36.023Z,2.07
2023-12-09T21:19:03.408Z,2.16
2023-12-09T21:21:33.054Z,2.06
2023-12-09T21:23:59.723Z,1.79
2023-12-09T21:26:26.560Z,1.55
2023-12-09T21:28:53.429Z,1.57
2023-12-09T21:31:20.159Z,1.54
2023-12-09T21:33:47.377Z,1.63
2023-12-09T21:36:14.792Z,1.77
2023-12-09T21:38:44.664Z,1.62
2023-12-09T21:41:23.827Z,1.28
2023-12-09T21:43:51.978Z,1.50
2023-12-09T21:46:21.035Z,1.64
2023-12-09T21:48:48.177Z,1.44
2023-12-09T21:51:14.970Z,1.54
2023-12-09T21:53:41.656Z,1.58
2023-12-09T21:56:08.945Z,1.73
2023-12-09T21:58:35.949Z,1.75
2023-12-09T22:01:02.729Z,1.78
2023-12-09T22:03:29.538Z,1.86
2023-12-09T22:05:56.195Z,1.94
2023-12-09T22:08:22.750Z,1.96
2023-12-09T22:10:49.385Z,1.94
2023-12-09T22:13:15.959Z,1.90
2023-12-09T22:15:43.941Z,1.80
2023-12-09T22:18:10.831Z,1.73
2023-12-09T22:20:37.774Z,1.57
2023-12-09T22:23:04.468Z,1.74
2023-12-09T22:25:30.979Z,1.79
2023-12-09T22:27:57.903Z,1.68
2023-12-09T22:30:24.604Z,1.60
2023-12-09T22:32:51.228Z,1.66
2023-12-09T22:35:17.958Z,1.68
2023-12-09T22:37:44.565Z,1.60
2023-12-09T22:40:11.379Z,1.49
2023-12-09T22:42:38.782Z,1.45
2023-12-09T22:45:05.755Z,1.39
2023-12-09T22:47:33.261Z,1.38
2023-12-09T22:49:59.963Z,1.31
2023-12-09T22:52:26.885Z,1.25
2023-12-09T22:54:54.017Z,1.16
2023-12-09T22:57:20.704Z,1.12
2023-12-09T22:59:47.666Z,1.17
2023-12-09T23:02:14.330Z,1.20
2023-12-09T23:04:41.093Z,1.27
2023-12-09T23:07:07.990Z,1.34
2023-12-09T23:09:35.271Z,1.29
2023-12-09T23:12:02.233Z,1.31
2023-12-09T23:14:28.823Z,1.33
2023-12-09T23:16:56.735Z,1.25
2023-12-09T23:19:23.937Z,1.28
2023-12-09T23:21:50.993Z,1.37
2023-12-09T23:24:17.581Z,1.39
2023-12-09T23:26:44.262Z,1.40
2023-12-09T23:29:10.817Z,1.24
2023-12-09T23:31:41.617Z,1.27
2023-12-09T23:34:10.463Z,1.35
2023-12-09T23:36:37.491Z,1.27
2023-12-09T23:39:04.187Z,1.23
2023-12-09T23:41:31.074Z,1.17
2023-12-09T23:43:57.623Z,1.08
2023-12-09T23:46:24.290Z,1.08
2023-12-09T23:48:51.105Z,1.04
2023-12-09T23:51:18.607Z,0.95
2023-12-09T23:53:45.154Z,0.91
2023-12-09T23:56:11.754Z,0.89
2023-12-09T23:58:38.362Z,0.85
